sensor_id;sensor_type;location;lat;lon;timestamp;pressure;altitude;pressure_sealevel;temperature;humidity
26043;BME280;13818;52.156;5.382;2022-07-15T00:01:51;101965.41;;;15.68;100.00
26043;BME280;13818;52.156;5.382;2022-07-15T00:04:18;101967.41;;;15.65;100.00
26043;BME280;13818;52.156;5.382;2022-07-15T00:06:45;101961.16;;;15.64;100.00
26043;BME280;13818;52.156;5.382;2022-07-15T00:09:11;101966.69;;;15.61;100.00
26043;BME280;13818;52.156;5.382;2022-07-15T00:11:38;101966.75;;;15.59;100.00
26043;BME280;13818;52.156;5.382;2022-07-15T00:14:04;101969.13;;;15.66;100.00
26043;BME280;13818;52.156;5.382;2022-07-15T00:16:32;101970.63;;;15.54;100.00
26043;BME280;13818;52.156;5.382;2022-07-15T00:18:58;101968.88;;;15.53;100.00
26043;BME280;13818;52.156;5.382;2022-07-15T00:21:25;101966.84;;;15.58;100.00
26043;BME280;13818;52.156;5.382;2022-07-15T00:23:51;101972.50;;;15.52;100.00
26043;BME280;13818;52.156;5.382;2022-07-15T00:26:18;101973.44;;;15.51;100.00
26043;BME280;13818;52.156;5.382;2022-07-15T00:28:44;101962.56;;;15.54;100.00
26043;BME280;13818;52.156;5.382;2022-07-15T00:31:11;101977.88;;;15.52;100.00
26043;BME280;13818;52.156;5.382;2022-07-15T00:33:39;101971.66;;;15.51;100.00
26043;BME280;13818;52.156;5.382;2022-07-15T00:36:06;101961.72;;;15.53;100.00
26043;BME280;13818;52.156;5.382;2022-07-15T00:38:32;101960.97;;;15.50;100.00
26043;BME280;13818;52.156;5.382;2022-07-15T00:40:59;101961.56;;;15.37;100.00
26043;BME280;13818;52.156;5.382;2022-07-15T00:43:25;101964.34;;;15.36;100.00
26043;BME280;13818;52.156;5.382;2022-07-15T00:45:52;101969.94;;;15.31;100.00
26043;BME280;13818;52.156;5.382;2022-07-15T00:48:19;101958.88;;;15.37;100.00
26043;BME280;13818;52.156;5.382;2022-07-15T00:50:47;101957.16;;;15.36;100.00
26043;BME280;13818;52.156;5.382;2022-07-15T00:53:16;101960.78;;;15.35;100.00
26043;BME280;13818;52.156;5.382;2022-07-15T00:55:44;101951.97;;;15.32;100.00
26043;BME280;13818;52.156;5.382;2022-07-15T00:58:15;101955.84;;;15.26;100.00
26043;BME280;13818;52.156;5.382;2022-07-15T01:00:42;101956.06;;;15.21;100.00
26043;BME280;13818;52.156;5.382;2022-07-15T01:03:09;101953.25;;;15.24;100.00
26043;BME280;13818;52.156;5.382;2022-07-15T01:05:37;101953.94;;;15.28;100.00
26043;BME280;13818;52.156;5.382;2022-07-15T01:08:05;101948.72;;;15.25;100.00
26043;BME280;13818;52.156;5.382;2022-07-15T01:10:34;101950.69;;;15.21;100.00
26043;BME280;13818;52.156;5.382;2022-07-15T01:13:01;101949.84;;;15.21;100.00
26043;BME280;13818;52.156;5.382;2022-07-15T01:15:28;101952.53;;;15.21;100.00
26043;BME280;13818;52.156;5.382;2022-07-15T01:17:56;101947.88;;;15.24;100.00
26043;BME280;13818;52.156;5.382;2022-07-15T01:20:24;101951.34;;;15.26;100.00
26043;BME280;13818;52.156;5.382;2022-07-15T01:22:52;101956.22;;;15.18;100.00
26043;BME280;13818;52.156;5.382;2022-07-15T01:25:19;101949.91;;;15.19;100.00
26043;BME280;13818;52.156;5.382;2022-07-15T01:27:45;101953.59;;;15.17;100.00
26043;BME280;13818;52.156;5.382;2022-07-15T01:30:12;101955.50;;;15.15;100.00
26043;BME280;13818;52.156;5.382;2022-07-15T01:32:38;101960.78;;;14.97;100.00
26043;BME280;13818;52.156;5.382;2022-07-15T01:35:06;101954.94;;;15.08;100.00
26043;BME280;13818;52.156;5.382;2022-07-15T01:37:32;101950.78;;;15.01;100.00
26043;BME280;13818;52.156;5.382;2022-07-15T01:40:00;101956.28;;;14.97;100.00
26043;BME280;13818;52.156;5.382;2022-07-15T01:42:27;101958.31;;;14.92;100.00
26043;BME280;13818;52.156;5.382;2022-07-15T01:44:53;101968.78;;;14.99;100.00
26043;BME280;13818;52.156;5.382;2022-07-15T01:47:20;101965.44;;;14.93;100.00
26043;BME280;13818;52.156;5.382;2022-07-15T01:49:46;101970.50;;;14.80;100.00
26043;BME280;13818;52.156;5.382;2022-07-15T01:52:13;101963.66;;;14.73;100.00
26043;BME280;13818;52.156;5.382;2022-07-15T01:54:40;101968.19;;;14.73;100.00
26043;BME280;13818;52.156;5.382;2022-07-15T01:57:08;101967.44;;;14.69;100.00
26043;BME280;13818;52.156;5.382;2022-07-15T01:59:34;101965.91;;;14.83;100.00
26043;BME280;13818;52.156;5.382;2022-07-15T02:02:01;101967.00;;;14.78;100.00
26043;BME280;13818;52.156;5.382;2022-07-15T02:04:27;101968.75;;;14.79;100.00
26043;BME280;13818;52.156;5.382;2022-07-15T02:06:54;101976.72;;;14.81;100.00
26043;BME280;13818;52.156;5.382;2022-07-15T02:09:21;101968.75;;;14.79;100.00
26043;BME280;13818;52.156;5.382;2022-07-15T02:11:47;101957.94;;;14.81;100.00
26043;BME280;13818;52.156;5.382;2022-07-15T02:14:15;101961.66;;;14.78;100.00
26043;BME280;13818;52.156;5.382;2022-07-15T02:16:42;101962.66;;;14.76;100.00
26043;BME280;13818;52.156;5.382;2022-07-15T02:19:08;101963.97;;;14.86;100.00
26043;BME280;13818;52.156;5.382;2022-07-15T02:21:35;101963.19;;;14.84;100.00
26043;BME280;13818;52.156;5.382;2022-07-15T02:24:02;101965.06;;;14.82;100.00
26043;BME280;13818;52.156;5.382;2022-07-15T02:26:29;101969.63;;;14.80;100.00
26043;BME280;13818;52.156;5.382;2022-07-15T02:28:56;101971.44;;;14.79;100.00
26043;BME280;13818;52.156;5.382;2022-07-15T02:31:24;101970.78;;;14.74;100.00
26043;BME280;13818;52.156;5.382;2022-07-15T02:33:50;101965.13;;;14.60;100.00
26043;BME280;13818;52.156;5.382;2022-07-15T02:36:17;101971.72;;;14.53;100.00
26043;BME280;13818;52.156;5.382;2022-07-15T02:38:43;101969.84;;;14.55;100.00
26043;BME280;13818;52.156;5.382;2022-07-15T02:41:10;101966.22;;;14.56;100.00
26043;BME280;13818;52.156;5.382;2022-07-15T02:43:38;101975.28;;;14.53;100.00
26043;BME280;13818;52.156;5.382;2022-07-15T02:46:06;101971.13;;;14.46;100.00
26043;BME280;13818;52.156;5.382;2022-07-15T02:48:35;101976.94;;;14.56;100.00
26043;BME280;13818;52.156;5.382;2022-07-15T02:51:03;101977.22;;;14.49;100.00
26043;BME280;13818;52.156;5.382;2022-07-15T02:53:29;101971.84;;;14.49;100.00
26043;BME280;13818;52.156;5.382;2022-07-15T02:55:56;101979.84;;;14.51;100.00
26043;BME280;13818;52.156;5.382;2022-07-15T02:58:24;101984.53;;;14.46;100.00
26043;BME280;13818;52.156;5.382;2022-07-15T03:00:51;101975.47;;;14.48;100.00
26043;BME280;13818;52.156;5.382;2022-07-15T03:03:17;101985.00;;;14.56;100.00
26043;BME280;13818;52.156;5.382;2022-07-15T03:05:45;101981.53;;;14.54;100.00
26043;BME280;13818;52.156;5.382;2022-07-15T03:08:12;101992.31;;;14.52;100.00
26043;BME280;13818;52.156;5.382;2022-07-15T03:10:39;101989.03;;;14.45;100.00
26043;BME280;13818;52.156;5.382;2022-07-15T03:13:05;101986.34;;;14.45;100.00
26043;BME280;13818;52.156;5.382;2022-07-15T03:15:32;101985.81;;;14.37;100.00
26043;BME280;13818;52.156;5.382;2022-07-15T03:17:58;101991.47;;;14.31;100.00
26043;BME280;13818;52.156;5.382;2022-07-15T03:20:25;101991.38;;;14.32;100.00
26043;BME280;13818;52.156;5.382;2022-07-15T03:22:53;101993.13;;;14.34;100.00
26043;BME280;13818;52.156;5.382;2022-07-15T03:25:19;101993.91;;;14.36;100.00
26043;BME280;13818;52.156;5.382;2022-07-15T03:27:46;101998.63;;;14.30;100.00
26043;BME280;13818;52.156;5.382;2022-07-15T03:30:12;101998.53;;;14.32;100.00
26043;BME280;13818;52.156;5.382;2022-07-15T03:32:39;102004.91;;;14.29;100.00
26043;BME280;13818;52.156;5.382;2022-07-15T03:35:06;102001.31;;;14.30;100.00
26043;BME280;13818;52.156;5.382;2022-07-15T03:37:33;102003.19;;;14.28;100.00
26043;BME280;13818;52.156;5.382;2022-07-15T03:40:01;102005.13;;;14.25;100.00
26043;BME280;13818;52.156;5.382;2022-07-15T03:42:28;102002.22;;;14.29;100.00
26043;BME280;13818;52.156;5.382;2022-07-15T03:44:54;102009.41;;;14.29;100.00
26043;BME280;13818;52.156;5.382;2022-07-15T03:47:20;102010.25;;;14.31;100.00
26043;BME280;13818;52.156;5.382;2022-07-15T03:49:47;102015.88;;;14.25;100.00
26043;BME280;13818;52.156;5.382;2022-07-15T03:52:13;102013.19;;;14.25;100.00
26043;BME280;13818;52.156;5.382;2022-07-15T03:54:40;102018.31;;;14.29;100.00
26043;BME280;13818;52.156;5.382;2022-07-15T03:57:08;102023.09;;;14.23;100.00
26043;BME280;13818;52.156;5.382;2022-07-15T03:59:35;102019.41;;;14.25;100.00
26043;BME280;13818;52.156;5.382;2022-07-15T04:02:02;102023.94;;;14.23;100.00
26043;BME280;13818;52.156;5.382;2022-07-15T04:04:28;102022.09;;;14.25;100.00
26043;BME280;13818;52.156;5.382;2022-07-15T04:06:55;102024.31;;;14.36;100.00
26043;BME280;13818;52.156;5.382;2022-07-15T04:09:21;102029.00;;;14.52;100.00
26043;BME280;13818;52.156;5.382;2022-07-15T04:11:48;102025.38;;;14.53;100.00
26043;BME280;13818;52.156;5.382;2022-07-15T04:14:16;102028.84;;;14.55;100.00
26043;BME280;13818;52.156;5.382;2022-07-15T04:16:44;102029.41;;;14.63;100.00
26043;BME280;13818;52.156;5.382;2022-07-15T04:19:11;102029.78;;;14.95;100.00
26043;BME280;13818;52.156;5.382;2022-07-15T04:21:39;102037.16;;;15.49;100.00
26043;BME280;13818;52.156;5.382;2022-07-15T04:24:05;102032.38;;;15.92;100.00
26043;BME280;13818;52.156;5.382;2022-07-15T04:26:32;102035.28;;;16.24;100.00
26043;BME280;13818;52.156;5.382;2022-07-15T04:28:58;102037.56;;;16.67;100.00
26043;BME280;13818;52.156;5.382;2022-07-15T04:31:26;102041.66;;;16.91;100.00
26043;BME280;13818;52.156;5.382;2022-07-15T04:33:52;102040.53;;;17.45;100.00
26043;BME280;13818;52.156;5.382;2022-07-15T04:36:19;102037.44;;;17.83;100.00
26043;BME280;13818;52.156;5.382;2022-07-15T04:38:45;102041.69;;;18.19;100.00
26043;BME280;13818;52.156;5.382;2022-07-15T04:41:11;102044.91;;;18.41;100.00
26043;BME280;13818;52.156;5.382;2022-07-15T04:43:38;102053.84;;;18.72;100.00
26043;BME280;13818;52.156;5.382;2022-07-15T04:46:04;102051.31;;;18.99;99.18
26043;BME280;13818;52.156;5.382;2022-07-15T04:48:32;102051.22;;;19.00;99.15
26043;BME280;13818;52.156;5.382;2022-07-15T04:51:16;102057.81;;;19.52;95.14
26043;BME280;13818;52.156;5.382;2022-07-15T04:53:43;102052.22;;;19.97;90.64
26043;BME280;13818;52.156;5.382;2022-07-15T04:56:09;102053.09;;;20.11;89.60
26043;BME280;13818;52.156;5.382;2022-07-15T04:58:36;102049.75;;;20.07;88.92
26043;BME280;13818;52.156;5.382;2022-07-15T05:01:02;102055.66;;;20.40;86.47
26043;BME280;13818;52.156;5.382;2022-07-15T05:03:29;102054.34;;;20.73;84.48
26043;BME280;13818;52.156;5.382;2022-07-15T05:05:57;102056.47;;;21.06;81.33
26043;BME280;13818;52.156;5.382;2022-07-15T05:08:23;102061.44;;;21.25;80.28
26043;BME280;13818;52.156;5.382;2022-07-15T05:10:50;102064.66;;;21.56;77.08
26043;BME280;13818;52.156;5.382;2022-07-15T05:13:16;102064.41;;;21.97;74.24
26043;BME280;13818;52.156;5.382;2022-07-15T05:15:42;102054.41;;;22.33;72.20
26043;BME280;13818;52.156;5.382;2022-07-15T05:18:09;102053.97;;;22.39;71.16
26043;BME280;13818;52.156;5.382;2022-07-15T05:20:35;102057.97;;;22.57;69.94
26043;BME280;13818;52.156;5.382;2022-07-15T05:23:03;102057.66;;;22.96;67.71
26043;BME280;13818;52.156;5.382;2022-07-15T05:25:30;102062.53;;;23.27;66.17
26043;BME280;13818;52.156;5.382;2022-07-15T05:27:56;102057.56;;;24.31;60.33
26043;BME280;13818;52.156;5.382;2022-07-15T05:30:23;102064.09;;;24.40;58.86
26043;BME280;13818;52.156;5.382;2022-07-15T05:32:50;102066.84;;;24.49;58.23
26043;BME280;13818;52.156;5.382;2022-07-15T05:35:16;102055.38;;;24.67;57.38
26043;BME280;13818;52.156;5.382;2022-07-15T05:37:43;102060.03;;;24.76;56.56
26043;BME280;13818;52.156;5.382;2022-07-15T05:40:12;102061.91;;;25.07;55.00
26043;BME280;13818;52.156;5.382;2022-07-15T05:42:40;102073.13;;;25.13;54.69
26043;BME280;13818;52.156;5.382;2022-07-15T05:45:08;102066.28;;;25.29;54.16
26043;BME280;13818;52.156;5.382;2022-07-15T05:47:35;102073.16;;;25.54;53.02
26043;BME280;13818;52.156;5.382;2022-07-15T05:50:01;102076.34;;;25.69;52.75
26043;BME280;13818;52.156;5.382;2022-07-15T05:52:28;102075.09;;;26.03;51.48
26043;BME280;13818;52.156;5.382;2022-07-15T05:54:55;102073.50;;;26.78;48.26
26043;BME280;13818;52.156;5.382;2022-07-15T05:57:23;102069.56;;;27.01;47.74
26043;BME280;13818;52.156;5.382;2022-07-15T05:59:49;102065.56;;;27.23;46.77
26043;BME280;13818;52.156;5.382;2022-07-15T06:02:16;102062.03;;;27.03;46.91
26043;BME280;13818;52.156;5.382;2022-07-15T06:04:42;102064.38;;;26.88;46.72
26043;BME280;13818;52.156;5.382;2022-07-15T06:07:09;102063.34;;;27.08;45.99
26043;BME280;13818;52.156;5.382;2022-07-15T06:09:36;102070.47;;;26.82;46.81
26043;BME280;13818;52.156;5.382;2022-07-15T06:12:03;102066.38;;;27.61;45.27
26043;BME280;13818;52.156;5.382;2022-07-15T06:14:30;102073.47;;;28.00;44.30
26043;BME280;13818;52.156;5.382;2022-07-15T06:16:58;102069.19;;;28.15;42.35
26043;BME280;13818;52.156;5.382;2022-07-15T06:19:25;102070.69;;;28.09;42.41
26043;BME280;13818;52.156;5.382;2022-07-15T06:21:52;102065.88;;;27.93;41.65
26043;BME280;13818;52.156;5.382;2022-07-15T06:24:18;102068.91;;;27.72;42.00
26043;BME280;13818;52.156;5.382;2022-07-15T06:26:45;102067.38;;;28.24;41.13
26043;BME280;13818;52.156;5.382;2022-07-15T06:29:11;102072.75;;;27.98;41.50
26043;BME280;13818;52.156;5.382;2022-07-15T06:31:39;102063.44;;;28.27;40.79
26043;BME280;13818;52.156;5.382;2022-07-15T06:34:06;102074.03;;;28.84;39.76
26043;BME280;13818;52.156;5.382;2022-07-15T06:36:33;102076.53;;;28.33;40.61
26043;BME280;13818;52.156;5.382;2022-07-15T06:39:00;102080.22;;;29.20;38.69
26043;BME280;13818;52.156;5.382;2022-07-15T06:41:26;102073.28;;;28.73;39.41
26043;BME280;13818;52.156;5.382;2022-07-15T06:43:53;102075.06;;;28.65;39.68
26043;BME280;13818;52.156;5.382;2022-07-15T06:46:19;102080.88;;;29.14;38.46
26043;BME280;13818;52.156;5.382;2022-07-15T06:48:47;102078.72;;;29.00;38.90
26043;BME280;13818;52.156;5.382;2022-07-15T06:51:14;102080.16;;;28.78;38.66
26043;BME280;13818;52.156;5.382;2022-07-15T06:53:40;102086.31;;;28.53;38.64
26043;BME280;13818;52.156;5.382;2022-07-15T06:56:07;102083.50;;;27.35;40.30
26043;BME280;13818;52.156;5.382;2022-07-15T06:58:34;102080.47;;;28.12;39.30
26043;BME280;13818;52.156;5.382;2022-07-15T07:01:00;102079.78;;;28.72;38.29
26043;BME280;13818;52.156;5.382;2022-07-15T07:03:27;102077.63;;;28.84;36.99
26043;BME280;13818;52.156;5.382;2022-07-15T07:05:54;102084.13;;;28.83;36.21
26043;BME280;13818;52.156;5.382;2022-07-15T07:08:21;102083.13;;;28.66;36.62
26043;BME280;13818;52.156;5.382;2022-07-15T07:10:47;102089.28;;;28.24;37.46
26043;BME280;13818;52.156;5.382;2022-07-15T07:13:14;102087.34;;;28.34;37.75
26043;BME280;13818;52.156;5.382;2022-07-15T07:15:40;102089.00;;;28.09;38.43
26043;BME280;13818;52.156;5.382;2022-07-15T07:18:06;102091.34;;;28.22;38.14
26043;BME280;13818;52.156;5.382;2022-07-15T07:20:33;102086.38;;;28.44;38.35
26043;BME280;13818;52.156;5.382;2022-07-15T07:23:01;102101.19;;;28.95;37.42
26043;BME280;13818;52.156;5.382;2022-07-15T07:25:27;102087.78;;;28.92;37.45
26043;BME280;13818;52.156;5.382;2022-07-15T07:27:54;102090.00;;;29.23;36.63
26043;BME280;13818;52.156;5.382;2022-07-15T07:30:21;102084.34;;;29.25;35.57
26043;BME280;13818;52.156;5.382;2022-07-15T07:32:48;102092.31;;;29.36;36.37
26043;BME280;13818;52.156;5.382;2022-07-15T07:35:16;102095.34;;;29.59;35.74
26043;BME280;13818;52.156;5.382;2022-07-15T07:37:42;102091.69;;;29.16;36.08
26043;BME280;13818;52.156;5.382;2022-07-15T07:40:10;102093.50;;;28.72;36.36
26043;BME280;13818;52.156;5.382;2022-07-15T07:42:36;102081.91;;;27.70;38.08
26043;BME280;13818;52.156;5.382;2022-07-15T07:45:04;102093.34;;;28.38;37.13
26043;BME280;13818;52.156;5.382;2022-07-15T07:47:33;102082.41;;;27.56;38.75
26043;BME280;13818;52.156;5.382;2022-07-15T07:50:02;102089.16;;;28.07;37.96
26043;BME280;13818;52.156;5.382;2022-07-15T07:52:29;102092.47;;;28.73;36.42
26043;BME280;13818;52.156;5.382;2022-07-15T07:54:55;102092.03;;;29.47;35.00
26043;BME280;13818;52.156;5.382;2022-07-15T07:57:23;102094.25;;;28.83;34.67
26043;BME280;13818;52.156;5.382;2022-07-15T07:59:50;102092.22;;;27.21;38.18
26043;BME280;13818;52.156;5.382;2022-07-15T08:02:16;102088.94;;;27.55;37.89
26043;BME280;13818;52.156;5.382;2022-07-15T08:04:43;102085.97;;;27.66;37.39
26043;BME280;13818;52.156;5.382;2022-07-15T08:07:09;102094.97;;;28.04;37.34
26043;BME280;13818;52.156;5.382;2022-07-15T08:09:36;102094.09;;;27.76;38.54
26043;BME280;13818;52.156;5.382;2022-07-15T08:12:03;102083.41;;;28.01;37.54
26043;BME280;13818;52.156;5.382;2022-07-15T08:14:31;102086.81;;;28.75;36.60
26043;BME280;13818;52.156;5.382;2022-07-15T08:16:57;102089.28;;;29.13;35.74
26043;BME280;13818;52.156;5.382;2022-07-15T08:19:24;102082.09;;;28.05;36.29
26043;BME280;13818;52.156;5.382;2022-07-15T08:21:50;102085.44;;;27.25;38.10
26043;BME280;13818;52.156;5.382;2022-07-15T08:24:18;102085.47;;;26.58;39.10
26043;BME280;13818;52.156;5.382;2022-07-15T08:26:44;102088.81;;;25.52;41.74
26043;BME280;13818;52.156;5.382;2022-07-15T08:29:11;102081.59;;;25.41;42.72
26043;BME280;13818;52.156;5.382;2022-07-15T08:31:39;102085.53;;;25.58;42.50
26043;BME280;13818;52.156;5.382;2022-07-15T08:34:06;102086.25;;;25.60;42.71
26043;BME280;13818;52.156;5.382;2022-07-15T08:36:33;102083.81;;;25.26;42.07
26043;BME280;13818;52.156;5.382;2022-07-15T08:39:00;102079.59;;;24.81;42.13
26043;BME280;13818;52.156;5.382;2022-07-15T08:41:27;102079.75;;;24.47;43.03
26043;BME280;13818;52.156;5.382;2022-07-15T08:43:53;102075.16;;;24.27;43.58
26043;BME280;13818;52.156;5.382;2022-07-15T08:46:20;102078.38;;;23.99;43.32
26043;BME280;13818;52.156;5.382;2022-07-15T08:48:51;102072.56;;;23.93;42.27
26043;BME280;13818;52.156;5.382;2022-07-15T08:51:19;102072.94;;;23.88;43.87
26043;BME280;13818;52.156;5.382;2022-07-15T08:53:48;102063.97;;;24.09;44.17
26043;BME280;13818;52.156;5.382;2022-07-15T08:56:17;102067.03;;;24.15;44.28
26043;BME280;13818;52.156;5.382;2022-07-15T08:58:44;102065.44;;;24.13;44.38
26043;BME280;13818;52.156;5.382;2022-07-15T09:01:10;102068.19;;;24.34;44.77
26043;BME280;13818;52.156;5.382;2022-07-15T09:03:37;102067.06;;;24.36;44.86
26043;BME280;13818;52.156;5.382;2022-07-15T09:06:05;102063.19;;;24.60;44.62
26043;BME280;13818;52.156;5.382;2022-07-15T09:08:32;102077.31;;;24.87;43.84
26043;BME280;13818;52.156;5.382;2022-07-15T09:11:00;102062.94;;;24.84;41.94
26043;BME280;13818;52.156;5.382;2022-07-15T09:13:29;102067.66;;;25.13;41.43
26043;BME280;13818;52.156;5.382;2022-07-15T09:15:57;102062.41;;;24.91;42.87
26043;BME280;13818;52.156;5.382;2022-07-15T09:18:26;102059.28;;;24.95;42.12
26043;BME280;13818;52.156;5.382;2022-07-15T09:20:53;102060.94;;;24.87;41.40
26043;BME280;13818;52.156;5.382;2022-07-15T09:23:23;102053.75;;;25.16;40.84
26043;BME280;13818;52.156;5.382;2022-07-15T09:25:55;102056.66;;;24.94;41.62
26043;BME280;13818;52.156;5.382;2022-07-15T09:28:35;102052.19;;;24.83;41.78
26043;BME280;13818;52.156;5.382;2022-07-15T09:31:02;102041.75;;;24.67;42.76
26043;BME280;13818;52.156;5.382;2022-07-15T09:33:45;102052.84;;;24.96;41.21
26043;BME280;13818;52.156;5.382;2022-07-15T09:36:14;102054.53;;;25.28;41.20
26043;BME280;13818;52.156;5.382;2022-07-15T09:38:47;102054.66;;;25.27;40.00
26043;BME280;13818;52.156;5.382;2022-07-15T09:41:21;102051.50;;;24.91;40.66
26043;BME280;13818;52.156;5.382;2022-07-15T09:43:52;102044.34;;;24.68;41.02
26043;BME280;13818;52.156;5.382;2022-07-15T09:46:20;102050.31;;;24.41;40.76
26043;BME280;13818;52.156;5.382;2022-07-15T09:48:49;102048.63;;;24.08;41.59
26043;BME280;13818;52.156;5.382;2022-07-15T09:51:17;102045.97;;;24.17;41.47
26043;BME280;13818;52.156;5.382;2022-07-15T09:53:45;102048.31;;;24.22;42.02
26043;BME280;13818;52.156;5.382;2022-07-15T09:56:13;102044.78;;;24.31;41.62
26043;BME280;13818;52.156;5.382;2022-07-15T09:58:43;102043.38;;;24.37;41.06
26043;BME280;13818;52.156;5.382;2022-07-15T10:01:11;102046.84;;;24.39;41.14
26043;BME280;13818;52.156;5.382;2022-07-15T10:03:38;102039.06;;;24.34;39.49
26043;BME280;13818;52.156;5.382;2022-07-15T10:06:05;102038.88;;;24.47;38.71
26043;BME280;13818;52.156;5.382;2022-07-15T10:08:34;102037.19;;;24.67;38.93
26043;BME280;13818;52.156;5.382;2022-07-15T10:11:08;102034.81;;;24.63;38.62
26043;BME280;13818;52.156;5.382;2022-07-15T10:13:43;102027.47;;;24.53;38.48
26043;BME280;13818;52.156;5.382;2022-07-15T10:16:27;102033.56;;;24.25;38.75
26043;BME280;13818;52.156;5.382;2022-07-15T10:19:08;102040.00;;;24.24;38.72
26043;BME280;13818;52.156;5.382;2022-07-15T10:21:41;102028.25;;;23.91;39.28
26043;BME280;13818;52.156;5.382;2022-07-15T10:24:39;102026.94;;;23.73;40.61
26043;BME280;13818;52.156;5.382;2022-07-15T10:27:46;102022.84;;;23.79;41.44
26043;BME280;13818;52.156;5.382;2022-07-15T10:30:19;102020.81;;;23.93;41.49
26043;BME280;13818;52.156;5.382;2022-07-15T10:33:06;102026.22;;;24.04;42.21
26043;BME280;13818;52.156;5.382;2022-07-15T10:35:36;102018.97;;;23.93;42.13
26043;BME280;13818;52.156;5.382;2022-07-15T10:38:25;102022.88;;;23.68;43.63
26043;BME280;13818;52.156;5.382;2022-07-15T10:40:57;102017.97;;;23.50;45.22
26043;BME280;13818;52.156;5.382;2022-07-15T10:43:45;102015.09;;;23.63;45.32
26043;BME280;13818;52.156;5.382;2022-07-15T10:46:23;102009.50;;;23.65;45.37
26043;BME280;13818;52.156;5.382;2022-07-15T10:48:51;102008.56;;;23.87;44.95
26043;BME280;13818;52.156;5.382;2022-07-15T10:51:42;102001.06;;;24.33;43.21
26043;BME280;13818;52.156;5.382;2022-07-15T10:54:11;102004.31;;;24.48;42.60
26043;BME280;13818;52.156;5.382;2022-07-15T10:56:58;102009.34;;;24.10;44.71
26043;BME280;13818;52.156;5.382;2022-07-15T10:59:25;101998.75;;;24.28;43.12
26043;BME280;13818;52.156;5.382;2022-07-15T11:02:11;101990.09;;;24.23;44.02
26043;BME280;13818;52.156;5.382;2022-07-15T11:04:38;101991.22;;;24.42;46.12
26043;BME280;13818;52.156;5.382;2022-07-15T11:07:26;101984.47;;;23.82;44.99
26043;BME280;13818;52.156;5.382;2022-07-15T11:09:55;101980.59;;;23.85;44.93
26043;BME280;13818;52.156;5.382;2022-07-15T11:12:24;101968.25;;;23.92;44.83
26043;BME280;13818;52.156;5.382;2022-07-15T11:15:11;101973.06;;;23.88;45.50
26043;BME280;13818;52.156;5.382;2022-07-15T11:17:39;101973.03;;;24.00;45.06
26043;BME280;13818;52.156;5.382;2022-07-15T11:20:08;101977.88;;;23.85;44.27
26043;BME280;13818;52.156;5.382;2022-07-15T11:22:37;101970.16;;;24.01;43.93
26043;BME280;13818;52.156;5.382;2022-07-15T11:25:05;101969.56;;;23.98;42.81
26043;BME280;13818;52.156;5.382;2022-07-15T11:27:33;101972.81;;;23.92;44.18
26043;BME280;13818;52.156;5.382;2022-07-15T11:30:01;101968.44;;;23.89;43.86
26043;BME280;13818;52.156;5.382;2022-07-15T11:32:30;101971.50;;;23.75;44.21
26043;BME280;13818;52.156;5.382;2022-07-15T11:34:58;101972.09;;;23.78;44.86
26043;BME280;13818;52.156;5.382;2022-07-15T11:37:26;101982.78;;;24.02;43.91
26043;BME280;13818;52.156;5.382;2022-07-15T11:40:07;101974.41;;;24.36;43.07
26043;BME280;13818;52.156;5.382;2022-07-15T11:42:36;101971.84;;;24.35;43.15
26043;BME280;13818;52.156;5.382;2022-07-15T11:45:32;101972.59;;;24.47;42.38
26043;BME280;13818;52.156;5.382;2022-07-15T11:47:59;101968.81;;;24.38;42.50
26043;BME280;13818;52.156;5.382;2022-07-15T11:50:25;101974.03;;;24.41;43.59
26043;BME280;13818;52.156;5.382;2022-07-15T11:52:55;101962.78;;;24.34;45.75
26043;BME280;13818;52.156;5.382;2022-07-15T11:55:21;101964.97;;;24.41;44.27
26043;BME280;13818;52.156;5.382;2022-07-15T11:57:50;101958.28;;;24.45;44.98
26043;BME280;13818;52.156;5.382;2022-07-15T12:00:18;101972.75;;;24.66;42.72
26043;BME280;13818;52.156;5.382;2022-07-15T12:02:45;101965.94;;;24.61;42.32
26043;BME280;13818;52.156;5.382;2022-07-15T12:05:11;101964.09;;;24.61;42.63
26043;BME280;13818;52.156;5.382;2022-07-15T12:07:40;101979.06;;;24.67;42.86
26043;BME280;13818;52.156;5.382;2022-07-15T12:10:08;101972.13;;;24.63;43.16
26043;BME280;13818;52.156;5.382;2022-07-15T12:12:40;101971.38;;;24.61;42.42
26043;BME280;13818;52.156;5.382;2022-07-15T12:15:09;101966.63;;;24.74;42.19
26043;BME280;13818;52.156;5.382;2022-07-15T12:17:35;101963.75;;;24.76;41.83
26043;BME280;13818;52.156;5.382;2022-07-15T12:20:02;101958.59;;;24.82;42.90
26043;BME280;13818;52.156;5.382;2022-07-15T12:22:31;101954.88;;;24.83;42.08
26043;BME280;13818;52.156;5.382;2022-07-15T12:24:58;101954.66;;;24.44;42.69
26043;BME280;13818;52.156;5.382;2022-07-15T12:27:32;101960.28;;;24.21;42.78
26043;BME280;13818;52.156;5.382;2022-07-15T12:30:00;101964.72;;;24.44;42.93
26043;BME280;13818;52.156;5.382;2022-07-15T12:32:28;101968.56;;;24.41;42.14
26043;BME280;13818;52.156;5.382;2022-07-15T12:34:56;101966.66;;;24.11;43.68
26043;BME280;13818;52.156;5.382;2022-07-15T12:37:24;101973.50;;;24.05;44.20
26043;BME280;13818;52.156;5.382;2022-07-15T12:39:56;101968.56;;;23.99;44.77
26043;BME280;13818;52.156;5.382;2022-07-15T12:42:23;101967.66;;;24.10;45.37
26043;BME280;13818;52.156;5.382;2022-07-15T12:45:11;101970.22;;;24.53;44.28
26043;BME280;13818;52.156;5.382;2022-07-15T12:47:58;101979.84;;;24.79;42.55
26043;BME280;13818;52.156;5.382;2022-07-15T12:50:25;101971.94;;;24.54;43.22
26043;BME280;13818;52.156;5.382;2022-07-15T12:52:53;101969.56;;;24.40;43.11